createdAt,value
2024-01-11T00:01:11.610Z,-11.07
2024-01-11T00:03:40.920Z,-11.07
2024-01-11T00:06:09.471Z,-11.07
2024-01-11T00:08:37.758Z,-11.08
2024-01-11T00:11:07.548Z,-11.08
2024-01-11T00:13:35.844Z,-11.08
2024-01-11T00:16:05.036Z,-11.08
2024-01-11T00:18:33.638Z,-11.11
2024-01-11T00:21:02.041Z,-11.13
2024-01-11T00:23:30.595Z,-11.16
2024-01-11T00:25:58.862Z,-11.19
2024-01-11T00:28:26.997Z,-11.19
2024-01-11T00:30:55.257Z,-11.16
2024-01-11T00:33:23.630Z,-11.18
2024-01-11T00:35:51.845Z,-11.20
2024-01-11T00:38:20.013Z,-11.21
2024-01-11T00:40:48.547Z,-11.20
2024-01-11T00:43:16.890Z,-11.21
2024-01-11T00:45:47.238Z,-11.26
2024-01-11T00:48:15.595Z,-11.28
2024-01-11T00:50:44.108Z,-11.27
2024-01-11T00:53:15.762Z,-11.28
2024-01-11T00:55:44.525Z,-11.25
2024-01-11T00:58:13.375Z,-11.26
2024-01-11T01:00:41.601Z,-11.33
2024-01-11T01:03:10.004Z,-11.43
2024-01-11T01:05:38.380Z,-11.49
2024-01-11T01:08:06.714Z,-11.52
2024-01-11T01:10:35.132Z,-11.58
2024-01-11T01:13:05.326Z,-11.61
2024-01-11T01:15:33.713Z,-11.61
2024-01-11T01:18:02.528Z,-11.62
2024-01-11T01:20:31.244Z,-11.67
2024-01-11T01:22:59.848Z,-11.66
2024-01-11T01:25:28.336Z,-11.67
2024-01-11T01:27:57.657Z,-11.70
2024-01-11T01:30:26.131Z,-11.69
2024-01-11T01:32:55.355Z,-11.69
2024-01-11T01:35:23.656Z,-11.67
2024-01-11T01:37:52.288Z,-11.66
2024-01-11T01:40:22.760Z,-11.66
2024-01-11T01:43:00.363Z,-11.66
2024-01-11T01:45:28.650Z,-11.66
2024-01-11T01:47:57.214Z,-11.66
2024-01-11T01:50:26.800Z,-11.69
2024-01-11T01:52:57.247Z,-11.74
2024-01-11T01:55:26.814Z,-11.79
2024-01-11T01:57:55.716Z,-11.80
2024-01-11T02:00:24.343Z,-11.81
2024-01-11T02:02:55.991Z,-11.81
2024-01-11T02:05:25.417Z,-11.83
2024-01-11T02:07:53.979Z,-11.82
2024-01-11T02:10:24.103Z,-11.84
2024-01-11T02:12:52.359Z,-11.88
2024-01-11T02:15:20.829Z,-11.91
2024-01-11T02:17:49.376Z,-11.93
2024-01-11T02:20:17.869Z,-11.91
2024-01-11T02:22:51.516Z,-11.91
2024-01-11T02:25:19.692Z,-11.92
2024-01-11T02:27:51.618Z,-11.98
2024-01-11T02:30:20.116Z,-12.00
2024-01-11T02:32:50.732Z,-12.00
2024-01-11T02:35:20.545Z,-12.00
2024-01-11T02:37:49.950Z,-11.98
2024-01-11T02:40:20.447Z,-11.96
2024-01-11T02:42:48.888Z,-11.94
2024-01-11T02:45:17.330Z,-11.96
2024-01-11T02:47:46.168Z,-11.95
2024-01-11T02:50:14.837Z,-11.96
2024-01-11T02:52:43.408Z,-11.95
2024-01-11T02:55:12.292Z,-11.98
2024-01-11T02:57:40.469Z,-12.01
2024-01-11T03:00:09.355Z,-12.01
2024-01-11T03:02:40.181Z,-11.96
2024-01-11T03:05:09.482Z,-11.93
2024-01-11T03:07:37.992Z,-11.96
2024-01-11T03:10:06.766Z,-11.99
2024-01-11T03:12:34.884Z,-12.00
2024-01-11T03:15:03.600Z,-12.05
2024-01-11T03:17:32.165Z,-12.16
2024-01-11T03:20:01.456Z,-12.22
2024-01-11T03:22:29.689Z,-12.24
2024-01-11T03:24:58.006Z,-12.28
2024-01-11T03:27:26.708Z,-12.30
2024-01-11T03:29:54.865Z,-12.28
2024-01-11T03:32:23.168Z,-12.25
2024-01-11T03:34:51.398Z,-12.23
2024-01-11T03:37:20.135Z,-12.30
2024-01-11T03:39:48.252Z,-12.36
2024-01-11T03:42:16.409Z,-12.41
2024-01-11T03:44:44.699Z,-12.48
2024-01-11T03:47:13.153Z,-12.52
2024-01-11T03:49:41.613Z,-12.51
2024-01-11T03:52:09.951Z,-12.50
2024-01-11T03:54:38.313Z,-12.51
2024-01-11T03:57:07.867Z,-12.52
2024-01-11T03:59:36.447Z,-12.58
2024-01-11T04:02:05.625Z,-12.61
2024-01-11T04:04:34.478Z,-12.64
2024-01-11T04:07:02.737Z,-12.66
2024-01-11T04:09:31.119Z,-12.66
2024-01-11T04:11:59.434Z,-12.66
2024-01-11T04:14:27.663Z,-12.63
2024-01-11T04:16:56.604Z,-12.68
2024-01-11T04:19:25.086Z,-12.72
2024-01-11T04:21:53.589Z,-12.76
2024-01-11T04:24:21.883Z,-12.76
2024-01-11T04:26:50.209Z,-12.75
2024-01-11T04:29:19.828Z,-12.78
2024-01-11T04:31:48.309Z,-12.80
2024-01-11T04:34:16.540Z,-12.80
2024-01-11T04:36:44.966Z,-12.78
2024-01-11T04:39:13.436Z,-12.76
2024-01-11T04:41:42.205Z,-12.76
2024-01-11T04:44:11.753Z,-12.74
2024-01-11T04:46:39.955Z,-12.75
2024-01-11T04:49:08.455Z,-12.75
2024-01-11T04:51:37.171Z,-12.77
2024-01-11T04:54:05.632Z,-12.77
2024-01-11T04:56:34.116Z,-12.72
2024-01-11T04:59:02.813Z,-12.70
2024-01-11T05:01:31.430Z,-12.73
2024-01-11T05:03:59.915Z,-12.77
2024-01-11T05:06:28.390Z,-12.79
2024-01-11T05:08:56.571Z,-12.77
2024-01-11T05:11:26.048Z,-12.79
2024-01-11T05:13:54.557Z,-12.85
2024-01-11T05:16:27.404Z,-12.88
2024-01-11T05:18:58.167Z,-12.87
2024-01-11T05:21:29.269Z,-12.90
2024-01-11T05:23:57.443Z,-12.96
2024-01-11T05:26:25.665Z,-13.00
2024-01-11T05:28:54.219Z,-12.97
2024-01-11T05:31:23.519Z,-12.94
2024-01-11T05:33:51.883Z,-12.95
2024-01-11T05:36:20.325Z,-12.95
2024-01-11T05:38:48.808Z,-12.92
2024-01-11T05:41:17.236Z,-12.95
2024-01-11T05:43:45.715Z,-12.96
2024-01-11T05:46:14.293Z,-12.97
2024-01-11T05:48:44.069Z,-12.96
2024-01-11T05:51:12.560Z,-12.97
2024-01-11T05:53:41.247Z,-12.96
2024-01-11T05:56:11.088Z,-12.97
2024-01-11T05:58:41.138Z,-12.95
2024-01-11T06:01:10.092Z,-12.95
2024-01-11T06:03:39.890Z,-12.95
2024-01-11T06:06:09.542Z,-12.98
2024-01-11T06:08:38.493Z,-12.97
2024-01-11T06:11:09.157Z,-12.93
2024-01-11T06:13:38.043Z,-12.89
2024-01-11T06:16:07.588Z,-12.91
2024-01-11T06:18:36.855Z,-12.89
2024-01-11T06:21:05.230Z,-12.87
2024-01-11T06:23:33.508Z,-12.89
2024-01-11T06:26:01.888Z,-12.85
2024-01-11T06:28:31.726Z,-12.75
2024-01-11T06:31:01.198Z,-12.65
2024-01-11T06:33:29.737Z,-12.61
2024-01-11T06:35:59.690Z,-12.58
2024-01-11T06:38:28.028Z,-12.55
2024-01-11T06:40:56.402Z,-12.47
2024-01-11T06:43:24.712Z,-12.41
2024-01-11T06:45:54.297Z,-12.32
2024-01-11T06:48:22.845Z,-12.24
2024-01-11T06:50:51.534Z,-12.19
2024-01-11T06:53:19.823Z,-12.13
2024-01-11T06:55:48.926Z,-12.04
2024-01-11T06:58:17.542Z,-12.00
2024-01-11T07:00:45.866Z,-11.94
2024-01-11T07:03:14.158Z,-11.86
2024-01-11T07:05:42.974Z,-11.77
2024-01-11T07:08:11.758Z,-11.68
2024-01-11T07:10:40.005Z,-11.58
2024-01-11T07:13:08.351Z,-11.48
2024-01-11T07:15:36.556Z,-11.35
2024-01-11T07:18:05.651Z,-11.23
2024-01-11T07:20:34.959Z,-11.12
2024-01-11T07:23:03.660Z,-11.00
2024-01-11T07:25:32.049Z,-10.85
2024-01-11T07:28:00.380Z,-10.75
2024-01-11T07:30:28.731Z,-10.68
2024-01-11T07:32:57.100Z,-10.57
2024-01-11T07:35:25.972Z,-10.41
2024-01-11T07:37:55.469Z,-10.27
2024-01-11T07:40:27.094Z,-10.12
2024-01-11T07:42:55.267Z,-9.94
2024-01-11T07:45:24.335Z,-9.76
2024-01-11T07:47:52.780Z,-9.56
2024-01-11T07:50:21.510Z,-9.38
2024-01-11T07:52:50.199Z,-9.20
2024-01-11T07:55:19.402Z,-9.05
2024-01-11T07:57:47.531Z,-8.89
2024-01-11T08:00:16.430Z,-8.67
2024-01-11T08:02:44.962Z,-8.43
2024-01-11T08:05:13.555Z,-8.25
2024-01-11T08:07:43.409Z,-8.10
2024-01-11T08:10:11.885Z,-7.96
2024-01-11T08:12:40.050Z,-7.83
2024-01-11T08:15:13.856Z,-7.70
2024-01-11T08:17:49.671Z,-7.57
2024-01-11T08:20:18.030Z,-7.40
2024-01-11T08:22:47.863Z,-7.26
2024-01-11T08:25:16.532Z,-7.13
2024-01-11T08:27:44.756Z,-6.98
2024-01-11T08:30:14.087Z,-6.82
2024-01-11T08:32:43.286Z,-6.62
2024-01-11T08:35:13.488Z,-6.22
2024-01-11T08:37:41.920Z,-5.54
2024-01-11T08:40:11.113Z,-4.83
2024-01-11T08:42:40.746Z,-4.17
2024-01-11T08:45:10.016Z,-3.54
2024-01-11T08:47:40.048Z,-2.97
2024-01-11T08:50:09.040Z,-2.46
2024-01-11T08:52:39.002Z,-1.94
2024-01-11T08:55:10.366Z,-1.47
2024-01-11T08:57:38.707Z,-0.99
2024-01-11T09:00:08.191Z,-0.50
2024-01-11T09:02:36.682Z,-0.12
2024-01-11T09:05:09.353Z,0.32
2024-01-11T09:07:38.842Z,0.86
2024-01-11T09:10:12.721Z,1.25
2024-01-11T09:12:41.216Z,1.49
2024-01-11T09:15:09.770Z,1.79
2024-01-11T09:17:39.158Z,2.14
2024-01-11T09:20:08.401Z,2.36
2024-01-11T09:22:36.612Z,2.64
2024-01-11T09:25:05.681Z,2.86
2024-01-11T09:27:34.068Z,3.11
2024-01-11T09:30:02.742Z,3.36
2024-01-11T09:32:32.455Z,3.63
2024-01-11T09:35:00.895Z,3.82
2024-01-11T09:37:29.424Z,4.12
2024-01-11T09:39:57.544Z,4.36
2024-01-11T09:42:25.928Z,4.61
2024-01-11T09:44:56.730Z,4.80
2024-01-11T09:47:26.716Z,5.00
2024-01-11T09:49:58.264Z,5.41
2024-01-11T09:52:27.536Z,5.77
2024-01-11T09:54:56.350Z,5.85
2024-01-11T09:57:29.600Z,5.74
2024-01-11T09:59:59.192Z,5.16
2024-01-11T10:02:28.247Z,5.19
2024-01-11T10:04:57.863Z,5.52
2024-01-11T10:07:26.477Z,5.56
2024-01-11T10:09:54.998Z,5.20
2024-01-11T10:12:26.637Z,4.80
2024-01-11T10:14:55.712Z,4.49
2024-01-11T10:17:25.796Z,4.08
2024-01-11T10:19:56.545Z,3.80
2024-01-11T10:22:27.234Z,3.57
2024-01-11T10:25:16.904Z,3.44
2024-01-11T10:27:49.322Z,3.39
2024-01-11T10:30:18.992Z,3.40
2024-01-11T10:32:48.609Z,3.33
2024-01-11T10:35:19.432Z,3.15
2024-01-11T10:37:55.023Z,2.94
2024-01-11T10:40:26.997Z,2.77
2024-01-11T10:43:00.485Z,2.77
2024-01-11T10:45:31.930Z,2.82
2024-01-11T10:48:07.035Z,2.83
2024-01-11T10:50:42.982Z,2.88
2024-01-11T10:53:33.657Z,2.96
2024-01-11T10:56:05.100Z,2.92
2024-01-11T10:58:36.472Z,2.82
2024-01-11T11:01:07.389Z,2.75
2024-01-11T11:03:37.128Z,2.53
2024-01-11T11:06:07.947Z,2.20
2024-01-11T11:08:38.463Z,1.90
2024-01-11T11:11:07.709Z,1.70
2024-01-11T11:13:36.652Z,1.66
2024-01-11T11:16:05.692Z,1.64
2024-01-11T11:18:36.648Z,1.62
2024-01-11T11:21:12.341Z,1.62
2024-01-11T11:23:40.921Z,1.62
2024-01-11T11:26:17.751Z,1.66
2024-01-11T11:28:49.642Z,1.79
2024-01-11T11:31:58.395Z,1.84
2024-01-11T11:34:48.194Z,1.98
2024-01-11T11:37:25.387Z,2.13
2024-01-11T11:39:53.774Z,2.26
2024-01-11T11:42:27.159Z,2.32
2024-01-11T11:44:55.501Z,2.31
2024-01-11T11:47:25.082Z,2.30
2024-01-11T11:50:12.914Z,2.28
2024-01-11T11:52:45.003Z,2.22
2024-01-11T11:55:14.095Z,2.17
2024-01-11T11:57:44.355Z,2.16
2024-01-11T12:00:14.346Z,2.18
2024-01-11T12:02:43.291Z,2.23
2024-01-11T12:05:11.981Z,2.32
2024-01-11T12:07:40.427Z,2.38
2024-01-11T12:10:08.991Z,2.40
2024-01-11T12:12:38.516Z,2.40
2024-01-11T12:15:07.317Z,2.31
2024-01-11T12:17:35.895Z,2.20
2024-01-11T12:20:04.976Z,2.12
2024-01-11T12:22:33.527Z,2.08
2024-01-11T12:25:03.216Z,2.08
2024-01-11T12:27:32.145Z,2.07
2024-01-11T12:30:02.968Z,2.06
2024-01-11T12:32:31.744Z,2.02
2024-01-11T12:35:00.390Z,1.97
2024-01-11T12:37:31.880Z,1.89
2024-01-11T12:40:00.646Z,1.79
2024-01-11T12:42:29.126Z,1.65
2024-01-11T12:44:59.494Z,1.55
2024-01-11T12:47:29.135Z,1.49
2024-01-11T12:49:57.721Z,1.44
2024-01-11T12:52:28.658Z,1.38
2024-01-11T12:55:01.150Z,1.35
2024-01-11T12:57:30.520Z,1.27
2024-01-11T13:00:19.612Z,1.23
2024-01-11T13:02:49.798Z,1.15
2024-01-11T13:05:18.436Z,1.09
2024-01-11T13:07:46.672Z,1.06
2024-01-11T13:10:16.149Z,1.04
2024-01-11T13:12:48.372Z,1.00
2024-01-11T13:15:19.805Z,0.88
2024-01-11T13:17:48.053Z,0.74
2024-01-11T13:20:16.874Z,0.61
2024-01-11T13:22:45.520Z,0.50
2024-01-11T13:25:14.122Z,0.40
2024-01-11T13:27:42.426Z,0.33
2024-01-11T13:30:11.232Z,0.24
2024-01-11T13:32:39.579Z,0.16
2024-01-11T13:35:08.504Z,0.13
2024-01-11T13:37:37.044Z,0.14
2024-01-11T13:40:06.049Z,0.17
2024-01-11T13:42:34.809Z,0.17
2024-01-11T13:45:04.408Z,0.09
2024-01-11T13:47:32.601Z,-0.02
2024-01-11T13:50:01.238Z,-0.12
2024-01-11T13:52:29.755Z,-0.21
2024-01-11T13:54:57.950Z,-0.27
2024-01-11T13:57:26.107Z,-0.33
2024-01-11T13:59:54.290Z,-0.37
2024-01-11T14:02:22.661Z,-0.40
2024-01-11T14:04:50.924Z,-0.42
2024-01-11T14:07:19.782Z,-0.44
2024-01-11T14:09:48.118Z,-0.46
2024-01-11T14:12:17.028Z,-0.47
2024-01-11T14:14:45.187Z,-0.48
2024-01-11T14:17:13.773Z,-0.49
2024-01-11T14:19:42.156Z,-0.50
2024-01-11T14:22:10.771Z,-0.52
2024-01-11T14:24:39.156Z,-0.54
2024-01-11T14:27:08.510Z,-0.55
2024-01-11T14:29:36.927Z,-0.57
2024-01-11T14:32:06.825Z,-0.58
2024-01-11T14:34:35.424Z,-0.59
2024-01-11T14:37:04.009Z,-0.61
2024-01-11T14:39:32.872Z,-0.63
2024-01-11T14:42:01.590Z,-0.62
2024-01-11T14:44:29.768Z,-0.62
2024-01-11T14:46:58.803Z,-0.62
2024-01-11T14:49:27.772Z,-0.62
2024-01-11T14:51:56.589Z,-0.63
2024-01-11T14:54:24.949Z,-0.64
2024-01-11T14:56:53.631Z,-0.66
2024-01-11T14:59:22.060Z,-0.67
2024-01-11T15:01:50.439Z,-0.68
2024-01-11T15:04:19.369Z,-0.69
2024-01-11T15:06:47.758Z,-0.71
2024-01-11T15:09:16.607Z,-0.72
2024-01-11T15:11:45.337Z,-0.74
2024-01-11T15:14:15.219Z,-0.73
2024-01-11T15:16:46.966Z,-0.74
2024-01-11T15:19:15.699Z,-0.74
2024-01-11T15:21:49.140Z,-0.73
2024-01-11T15:24:20.724Z,-0.71
2024-01-11T15:26:50.119Z,-0.69
2024-01-11T15:29:19.447Z,-0.66
2024-01-11T15:31:50.465Z,-0.66
2024-01-11T15:34:20.262Z,-0.63
2024-01-11T15:36:49.466Z,-0.59
2024-01-11T15:39:25.934Z,-0.56
2024-01-11T15:41:58.969Z,-0.52
2024-01-11T15:44:29.827Z,-0.47
2024-01-11T15:46:58.611Z,-0.42
2024-01-11T15:49:28.210Z,-0.38
2024-01-11T15:51:57.304Z,-0.35
2024-01-11T15:54:26.045Z,-0.33
2024-01-11T15:56:55.536Z,-0.30
2024-01-11T15:59:25.404Z,-0.29
2024-01-11T16:02:03.348Z,-0.27
2024-01-11T16:04:36.720Z,-0.25
2024-01-11T16:07:05.526Z,-0.25
2024-01-11T16:09:33.899Z,-0.25
2024-01-11T16:12:05.612Z,-0.28
2024-01-11T16:14:35.318Z,-0.32
2024-01-11T16:17:04.289Z,-0.36
2024-01-11T16:19:35.158Z,-0.40
2024-01-11T16:22:04.665Z,-0.47
2024-01-11T16:24:32.900Z,-0.54
2024-01-11T16:27:01.189Z,-0.62
2024-01-11T16:29:29.811Z,-0.70
2024-01-11T16:31:58.676Z,-0.78
2024-01-11T16:34:27.300Z,-0.87
2024-01-11T16:36:55.577Z,-0.97
2024-01-11T16:39:23.661Z,-1.03
2024-01-11T16:41:53.250Z,-1.07
2024-01-11T16:44:21.454Z,-1.08
2024-01-11T16:46:49.947Z,-1.04
2024-01-11T16:49:18.922Z,-0.94
2024-01-11T16:51:50.629Z,-0.82
2024-01-11T16:54:19.969Z,-0.70
2024-01-11T16:56:49.320Z,-0.60
2024-01-11T16:59:19.433Z,-0.50
2024-01-11T17:01:48.332Z,-0.38
2024-01-11T17:04:17.170Z,-0.26
2024-01-11T17:06:45.839Z,-0.21
2024-01-11T17:09:14.409Z,-0.16
2024-01-11T17:11:43.780Z,-0.11
2024-01-11T17:14:12.773Z,-0.07
2024-01-11T17:16:41.516Z,-0.03
2024-01-11T17:19:09.951Z,-0.00
2024-01-11T17:21:38.137Z,0.02
2024-01-11T17:24:06.842Z,0.04
2024-01-11T17:26:35.484Z,0.04
2024-01-11T17:29:04.168Z,0.04
2024-01-11T17:31:32.334Z,0.05
2024-01-11T17:34:01.041Z,0.05
2024-01-11T17:36:29.491Z,0.07
2024-01-11T17:38:57.940Z,0.08
2024-01-11T17:41:26.571Z,0.08
2024-01-11T17:43:55.051Z,0.10
2024-01-11T17:46:29.347Z,0.11
2024-01-11T17:48:58.166Z,0.12
2024-01-11T17:51:27.253Z,0.13
2024-01-11T17:53:55.774Z,0.14
2024-01-11T17:56:24.530Z,0.15
2024-01-11T17:58:53.449Z,0.15
2024-01-11T18:01:23.649Z,0.14
2024-01-11T18:03:51.928Z,0.11
2024-01-11T18:06:20.343Z,0.08
2024-01-11T18:08:49.942Z,0.05
2024-01-11T18:11:18.522Z,0.02
2024-01-11T18:13:47.297Z,-0.01
2024-01-11T18:16:15.468Z,-0.04
2024-01-11T18:18:45.033Z,-0.07
2024-01-11T18:21:13.563Z,-0.10
2024-01-11T18:23:43.996Z,-0.14
2024-01-11T18:26:12.749Z,-0.15
2024-01-11T18:28:41.171Z,-0.18
2024-01-11T18:31:10.237Z,-0.19
2024-01-11T18:33:38.675Z,-0.19
2024-01-11T18:36:08.529Z,-0.20
2024-01-11T18:38:37.203Z,-0.19
2024-01-11T18:41:07.037Z,-0.19
2024-01-11T18:43:35.565Z,-0.22
2024-01-11T18:46:04.169Z,-0.25
2024-01-11T18:48:39.172Z,-0.27
2024-01-11T18:51:08.250Z,-0.30
2024-01-11T18:53:36.486Z,-0.33
2024-01-11T18:56:12.918Z,-0.36
2024-01-11T18:58:41.486Z,-0.39
2024-01-11T19:01:10.635Z,-0.41
2024-01-11T19:03:40.241Z,-0.42
2024-01-11T19:06:09.226Z,-0.45
2024-01-11T19:08:37.770Z,-0.48
2024-01-11T19:11:07.352Z,-0.50
2024-01-11T19:13:36.154Z,-0.49
2024-01-11T19:16:05.540Z,-0.51
2024-01-11T19:18:34.056Z,-0.50
2024-01-11T19:21:02.945Z,-0.53
2024-01-11T19:23:31.461Z,-0.53
2024-01-11T19:26:00.059Z,-0.51
2024-01-11T19:28:28.348Z,-0.49
2024-01-11T19:30:57.318Z,-0.49
2024-01-11T19:33:26.847Z,-0.47
2024-01-11T19:35:57.366Z,-0.47
2024-01-11T19:38:25.901Z,-0.46
2024-01-11T19:40:54.485Z,-0.45
2024-01-11T19:43:23.465Z,-0.47
2024-01-11T19:45:51.646Z,-0.48
2024-01-11T19:48:20.186Z,-0.49
2024-01-11T19:50:48.999Z,-0.49
2024-01-11T19:53:17.567Z,-0.49
2024-01-11T19:55:46.292Z,-0.48
2024-01-11T19:58:14.693Z,-0.46
2024-01-11T20:00:43.234Z,-0.45
2024-01-11T20:03:11.680Z,-0.45
2024-01-11T20:05:40.074Z,-0.44
2024-01-11T20:08:08.620Z,-0.43
2024-01-11T20:10:36.894Z,-0.44
2024-01-11T20:13:05.712Z,-0.44
2024-01-11T20:15:33.826Z,-0.45
2024-01-11T20:18:03.107Z,-0.44
2024-01-11T20:20:31.445Z,-0.44
2024-01-11T20:22:59.654Z,-0.45
2024-01-11T20:25:28.739Z,-0.46
2024-01-11T20:27:57.118Z,-0.48
2024-01-11T20:30:25.612Z,-0.49
2024-01-11T20:32:54.239Z,-0.47
2024-01-11T20:35:23.466Z,-0.48
2024-01-11T20:37:51.900Z,-0.48
2024-01-11T20:40:20.546Z,-0.49
2024-01-11T20:42:48.841Z,-0.51
2024-01-11T20:45:17.622Z,-0.53
2024-01-11T20:47:46.284Z,-0.52
2024-01-11T20:50:14.785Z,-0.53
2024-01-11T20:52:44.260Z,-0.57
2024-01-11T20:55:12.594Z,-0.58
2024-01-11T20:57:40.722Z,-0.58
2024-01-11T21:00:10.466Z,-0.61
2024-01-11T21:02:39.584Z,-0.64
2024-01-11T21:05:08.670Z,-0.66
2024-01-11T21:07:37.044Z,-0.67
2024-01-11T21:10:06.712Z,-0.69
2024-01-11T21:12:35.452Z,-0.71
2024-01-11T21:15:04.347Z,-0.71
2024-01-11T21:17:32.820Z,-0.70
2024-01-11T21:20:02.156Z,-0.71
2024-01-11T21:22:30.416Z,-0.74
2024-01-11T21:24:58.677Z,-0.76
2024-01-11T21:27:26.930Z,-0.79
2024-01-11T21:29:55.209Z,-0.80
2024-01-11T21:32:23.972Z,-0.82
2024-01-11T21:34:52.569Z,-0.80
2024-01-11T21:37:20.969Z,-0.79
2024-01-11T21:39:49.497Z,-0.79
2024-01-11T21:42:17.714Z,-0.79
2024-01-11T21:44:46.210Z,-0.81
2024-01-11T21:47:14.549Z,-0.83
2024-01-11T21:49:42.820Z,-0.84
2024-01-11T21:52:11.096Z,-0.85
2024-01-11T21:54:39.476Z,-0.86
2024-01-11T21:57:07.598Z,-0.90
2024-01-11T21:59:36.696Z,-0.95
2024-01-11T22:02:05.870Z,-0.99
2024-01-11T22:04:34.066Z,-1.02
2024-01-11T22:07:02.449Z,-1.09
2024-01-11T22:09:30.704Z,-1.14
2024-01-11T22:11:59.217Z,-1.17
2024-01-11T22:14:27.769Z,-1.19
2024-01-11T22:16:56.137Z,-1.17
2024-01-11T22:19:24.523Z,-1.16
2024-01-11T22:21:52.825Z,-1.16
2024-01-11T22:24:21.040Z,-1.18
2024-01-11T22:26:49.616Z,-1.17
2024-01-11T22:29:18.150Z,-1.19
2024-01-11T22:31:46.521Z,-1.23
2024-01-11T22:34:15.226Z,-1.25
2024-01-11T22:36:47.635Z,-1.24
2024-01-11T22:39:15.813Z,-1.23
2024-01-11T22:41:43.952Z,-1.24
2024-01-11T22:44:12.143Z,-1.25
2024-01-11T22:46:40.592Z,-1.25
2024-01-11T22:49:10.040Z,-1.22
2024-01-11T22:51:38.722Z,-1.20
2024-01-11T22:54:08.228Z,-1.18
2024-01-11T22:56:38.843Z,-1.17
2024-01-11T22:59:10.802Z,-1.13
2024-01-11T23:01:42.561Z,-1.12
2024-01-11T23:04:10.676Z,-1.12
2024-01-11T23:06:39.140Z,-1.10
2024-01-11T23:09:11.420Z,-1.09
2024-01-11T23:11:39.582Z,-1.11
2024-01-11T23:14:09.453Z,-1.11
2024-01-11T23:16:37.760Z,-1.12
2024-01-11T23:19:06.826Z,-1.10
2024-01-11T23:21:35.619Z,-1.09
2024-01-11T23:24:04.327Z,-1.09
2024-01-11T23:26:32.974Z,-1.09
2024-01-11T23:29:01.463Z,-1.10
2024-01-11T23:31:29.776Z,-1.12
2024-01-11T23:33:58.311Z,-1.14
2024-01-11T23:36:27.356Z,-1.18
2024-01-11T23:38:56.283Z,-1.19
2024-01-11T23:41:24.508Z,-1.19
2024-01-11T23:43:52.904Z,-1.19
2024-01-11T23:46:21.017Z,-1.18
2024-01-11T23:48:49.414Z,-1.15
2024-01-11T23:51:18.131Z,-1.14
2024-01-11T23:53:46.689Z,-1.14
2024-01-11T23:56:14.917Z,-1.14
2024-01-11T23:58:43.106Z,-1.16
